Etusivu
METAR-TAF:

METAR-TAF

Lentoasemat :

Schenck Field

Clarinda, Iowa, Yhdysvallat

Leveyspiiri: 40-43N, Pituuspiiri: 095-02W, korkeus merenpinnasta: 303 m

Tämänhetkinen sää

Tämä raportti tehtiin 15 minuuttia sitten, kello 05.15 UTC
Tuuli 5 kn etelästä
Lämpötila 22°C
Kosteus 88%
Ilmanpaine 1016 hPa
Näkyvyys: 16.1 km
Pilvistä 7000 ft:n korkeudessa

METAR: KICL 080515Z AUTO 18005KT 10SM OVC070 22/20 A2999 RMK AO2

Aika: 00:30 (05:30 UTC)


TAF: puuttuu

Säähavainnot ja -ennusteet yli 4000 lentoasemalta (METAR- ja TAF-raportit).

Käytössä olevat sääasemat on merkitty karttaan keltaisilla ja punaisilla pisteillä.

Aseta hiiri pisteen päälle nähdäksesi sääaseman nimen.

Klikkaa sitten nähdäksesi säähavainnot ja -ennusteet.

Kartan vaihtaminen: klikkaa mustalla rastilla varustettuja vihreitä pisteitä, niin voit zoomata sisään; viivalla varustettua vihreää pistettä, niin voit zoomata ulos tai vihreitä nuolia, niin pääset viereisille kartoille.


METAR-TAF: